createdAt,value
2023-12-31T00:02:25.731Z,101266.60
2023-12-31T00:04:53.263Z,101272.66
2023-12-31T00:07:21.493Z,101279.25
2023-12-31T00:09:49.085Z,101283.58
2023-12-31T00:12:16.554Z,101285.65
2023-12-31T00:14:44.050Z,101291.48
2023-12-31T00:17:11.788Z,101295.98
2023-12-31T00:19:39.484Z,101297.08
2023-12-31T00:22:07.746Z,101301.89
2023-12-31T00:24:35.296Z,101306.23
2023-12-31T00:27:02.826Z,101312.11
2023-12-31T00:29:31.307Z,101309.19
2023-12-31T00:31:59.849Z,101310.23
2023-12-31T00:34:27.329Z,101310.05
2023-12-31T00:36:54.885Z,101307.81
2023-12-31T00:39:22.427Z,101309.89
2023-12-31T00:41:50.215Z,101310.06
2023-12-31T00:44:17.983Z,101311.45
2023-12-31T00:46:45.726Z,101312.85
2023-12-31T00:49:13.302Z,101317.32
2023-12-31T00:51:41.135Z,101317.66
2023-12-31T00:54:08.649Z,101319.58
2023-12-31T00:56:36.165Z,101320.27
2023-12-31T00:59:04.198Z,101319.59
2023-12-31T01:01:32.844Z,101324.42
2023-12-31T01:04:00.348Z,101323.08
2023-12-31T01:06:27.809Z,101319.82
2023-12-31T01:08:58.192Z,101322.73
2023-12-31T01:11:28.415Z,101322.39
2023-12-31T01:13:56.200Z,101328.95
2023-12-31T01:16:23.890Z,101327.89
2023-12-31T01:18:51.429Z,101330.94
2023-12-31T01:21:20.165Z,101329.09
2023-12-31T01:23:47.868Z,101331.45
2023-12-31T01:26:15.857Z,101327.81
2023-12-31T01:28:43.630Z,101327.84
2023-12-31T01:31:19.202Z,101327.75
2023-12-31T01:33:47.595Z,101327.60
2023-12-31T01:36:17.051Z,101333.63
2023-12-31T01:38:44.970Z,101336.05
2023-12-31T01:41:12.807Z,101338.48
2023-12-31T01:43:40.452Z,101334.02
2023-12-31T01:46:08.109Z,101332.53
2023-12-31T01:48:35.686Z,101330.98
2023-12-31T01:51:03.988Z,101337.52
2023-12-31T01:53:33.029Z,101338.16
2023-12-31T01:56:00.641Z,101339.85
2023-12-31T01:58:28.461Z,101337.64
2023-12-31T02:00:56.059Z,101338.87
2023-12-31T02:03:23.730Z,101340.23
2023-12-31T02:05:51.313Z,101349.50
2023-12-31T02:08:18.966Z,101346.56
2023-12-31T02:10:46.840Z,101339.83
2023-12-31T02:13:14.411Z,101339.98
2023-12-31T02:15:41.898Z,101343.06
2023-12-31T02:18:09.981Z,101344.07
2023-12-31T02:20:38.130Z,101347.83
2023-12-31T02:23:07.292Z,101347.27
2023-12-31T02:25:35.292Z,101346.73
2023-12-31T02:28:03.102Z,101349.25
2023-12-31T02:30:31.415Z,101353.14
2023-12-31T02:32:59.084Z,101359.80
2023-12-31T02:35:26.658Z,101360.80
2023-12-31T02:37:54.189Z,101361.34
2023-12-31T02:40:22.346Z,101365.77
2023-12-31T02:42:51.275Z,101372.45
2023-12-31T02:45:18.761Z,101371.61
2023-12-31T02:47:48.057Z,101373.66
2023-12-31T02:50:16.228Z,101378.96
2023-12-31T02:52:43.743Z,101379.30
2023-12-31T02:55:11.333Z,101378.46
2023-12-31T02:57:38.859Z,101375.20
2023-12-31T03:00:07.145Z,101376.06
2023-12-31T03:02:35.064Z,101378.46
2023-12-31T03:05:03.092Z,101374.30
2023-12-31T03:07:30.611Z,101377.38
2023-12-31T03:09:58.184Z,101381.69
2023-12-31T03:12:25.752Z,101390.30
2023-12-31T03:14:53.308Z,101389.45
2023-12-31T03:17:20.758Z,101390.12
2023-12-31T03:19:49.264Z,101391.45
2023-12-31T03:22:29.928Z,101393.52
2023-12-31T03:25:01.564Z,101407.08
2023-12-31T03:27:29.171Z,101408.42
2023-12-31T03:29:56.683Z,101404.83
2023-12-31T03:32:24.815Z,101412.75
2023-12-31T03:34:53.097Z,101410.20
2023-12-31T03:37:22.535Z,101414.34
2023-12-31T03:39:52.152Z,101417.06
2023-12-31T03:42:19.965Z,101419.66
2023-12-31T03:44:48.389Z,101420.60
2023-12-31T03:47:15.927Z,101419.39
2023-12-31T03:49:43.563Z,101425.14
2023-12-31T03:52:12.396Z,101422.56
2023-12-31T03:54:43.304Z,101426.58
2023-12-31T03:57:11.196Z,101429.40
2023-12-31T03:59:40.734Z,101427.52
2023-12-31T04:02:08.415Z,101431.04
2023-12-31T04:04:36.205Z,101431.30
2023-12-31T04:07:05.746Z,101429.67
2023-12-31T04:09:34.736Z,101435.86
2023-12-31T04:12:06.298Z,101436.76
2023-12-31T04:14:33.936Z,101438.77
2023-12-31T04:17:01.572Z,101438.81
2023-12-31T04:19:30.011Z,101453.21
2023-12-31T04:21:57.515Z,101458.64
2023-12-31T04:24:25.176Z,101456.88
2023-12-31T04:26:54.189Z,101455.00
2023-12-31T04:29:21.685Z,101459.25
2023-12-31T04:31:52.767Z,101464.57
2023-12-31T04:34:22.911Z,101472.39
2023-12-31T04:36:50.386Z,101472.77
2023-12-31T04:39:17.970Z,101471.14
2023-12-31T04:41:45.505Z,101478.32
2023-12-31T04:44:13.079Z,101480.52
2023-12-31T04:46:41.898Z,101483.08
2023-12-31T04:49:09.455Z,101485.19
2023-12-31T04:51:37.018Z,101487.46
2023-12-31T04:54:04.615Z,101487.83
2023-12-31T04:56:32.136Z,101489.84
2023-12-31T04:59:00.255Z,101496.46
2023-12-31T05:01:33.536Z,101496.11
2023-12-31T05:04:02.660Z,101498.39
2023-12-31T05:06:30.213Z,101505.77
2023-12-31T05:08:57.796Z,101510.31
2023-12-31T05:11:25.759Z,101516.34
2023-12-31T05:13:53.299Z,101518.58
2023-12-31T05:16:20.946Z,101519.73
2023-12-31T05:18:52.243Z,101522.87
2023-12-31T05:21:20.429Z,101524.27
2023-12-31T05:23:47.961Z,101529.61
2023-12-31T05:26:15.523Z,101535.57
2023-12-31T05:28:43.050Z,101536.79
2023-12-31T05:31:11.924Z,101538.31
2023-12-31T05:33:39.574Z,101538.15
2023-12-31T05:36:07.238Z,101544.55
2023-12-31T05:38:34.774Z,101537.83
2023-12-31T05:41:02.267Z,101541.48
2023-12-31T05:43:29.975Z,101550.30
2023-12-31T05:45:57.618Z,101545.64
2023-12-31T05:48:25.372Z,101551.13
2023-12-31T05:50:53.056Z,101557.88
2023-12-31T05:53:20.779Z,101561.02
2023-12-31T05:55:48.768Z,101559.44
2023-12-31T05:58:16.467Z,101564.71
2023-12-31T06:00:44.045Z,101573.36
2023-12-31T06:03:11.602Z,101578.55
2023-12-31T06:05:39.125Z,101581.19
2023-12-31T06:08:07.184Z,101584.12
2023-12-31T06:10:34.824Z,101581.12
2023-12-31T06:13:03.506Z,101583.27
2023-12-31T06:15:31.858Z,101580.23
2023-12-31T06:17:59.514Z,101587.72
2023-12-31T06:20:27.089Z,101589.42
2023-12-31T06:22:54.606Z,101593.39
2023-12-31T06:25:22.242Z,101597.08
2023-12-31T06:27:49.940Z,101601.71
2023-12-31T06:30:17.688Z,101606.05
2023-12-31T06:32:45.499Z,101613.51
2023-12-31T06:35:13.184Z,101609.92
2023-12-31T06:37:40.743Z,101613.09
2023-12-31T06:40:09.908Z,101617.23
2023-12-31T06:42:37.499Z,101621.59
2023-12-31T06:45:06.301Z,101626.57
2023-12-31T06:47:33.948Z,101624.30
2023-12-31T06:50:01.687Z,101619.61
2023-12-31T06:52:29.186Z,101620.81
2023-12-31T06:54:56.963Z,101623.64
2023-12-31T06:57:24.550Z,101624.55
2023-12-31T06:59:52.260Z,101623.13
2023-12-31T07:02:20.847Z,101623.63
2023-12-31T07:04:48.330Z,101628.59
2023-12-31T07:07:16.023Z,101633.41
2023-12-31T07:09:43.556Z,101637.31
2023-12-31T07:12:11.023Z,101641.50
2023-12-31T07:14:39.108Z,101646.04
2023-12-31T07:17:06.678Z,101638.23
2023-12-31T07:19:34.205Z,101640.28
2023-12-31T07:22:01.769Z,101643.30
2023-12-31T07:24:29.372Z,101644.20
2023-12-31T07:26:56.838Z,101640.14
2023-12-31T07:29:24.447Z,101633.61
2023-12-31T07:31:52.281Z,101631.41
2023-12-31T07:34:20.036Z,101631.46
2023-12-31T07:36:47.632Z,101630.64
2023-12-31T07:39:15.142Z,101630.88
2023-12-31T07:41:42.683Z,101629.74
2023-12-31T07:44:10.207Z,101635.71
2023-12-31T07:46:39.091Z,101643.55
2023-12-31T07:49:06.711Z,101652.37
2023-12-31T07:51:34.503Z,101660.27
2023-12-31T07:54:02.711Z,101669.00
2023-12-31T07:56:30.216Z,101676.49
2023-12-31T07:58:57.895Z,101686.61
2023-12-31T08:01:25.473Z,101690.85
2023-12-31T08:03:53.361Z,101692.80
2023-12-31T08:06:21.181Z,101691.67
2023-12-31T08:08:50.261Z,101687.82
2023-12-31T08:11:17.834Z,101691.39
2023-12-31T08:13:45.418Z,101696.45
2023-12-31T08:16:13.072Z,101695.02
2023-12-31T08:18:40.640Z,101692.35
2023-12-31T08:21:08.217Z,101691.94
2023-12-31T08:23:35.791Z,101694.42
2023-12-31T08:26:05.067Z,101691.48
2023-12-31T08:28:32.680Z,101690.13
2023-12-31T08:31:00.780Z,101691.05
2023-12-31T08:33:28.409Z,101687.31
2023-12-31T08:35:56.286Z,101690.30
2023-12-31T08:38:24.289Z,101686.91
2023-12-31T08:40:52.124Z,101684.19
2023-12-31T08:43:19.892Z,101680.76
2023-12-31T08:45:52.395Z,101679.76
2023-12-31T08:48:21.255Z,101679.30
2023-12-31T08:50:49.278Z,101679.99
2023-12-31T08:53:16.836Z,101683.80
2023-12-31T08:55:44.492Z,101684.86
2023-12-31T08:58:13.663Z,101683.34
2023-12-31T09:00:41.392Z,101678.91
2023-12-31T09:03:08.953Z,101676.33
2023-12-31T09:05:36.704Z,101671.84
2023-12-31T09:08:05.012Z,101674.45
2023-12-31T09:10:34.994Z,101672.91
2023-12-31T09:13:05.024Z,101675.50
2023-12-31T09:15:33.037Z,101676.08
2023-12-31T09:18:00.749Z,101671.27
2023-12-31T09:20:28.357Z,101674.21
2023-12-31T09:22:55.957Z,101679.05
2023-12-31T09:25:24.477Z,101676.81
2023-12-31T09:27:52.298Z,101675.27
2023-12-31T09:30:20.919Z,101667.34
2023-12-31T09:32:48.567Z,101668.04
2023-12-31T09:35:16.350Z,101671.49
2023-12-31T09:37:43.861Z,101668.89
2023-12-31T09:40:11.942Z,101669.25
2023-12-31T09:42:42.479Z,101663.36
2023-12-31T09:45:10.323Z,101665.09
2023-12-31T09:47:38.032Z,101661.48
2023-12-31T09:50:09.065Z,101660.09
2023-12-31T09:52:37.547Z,101661.99
2023-12-31T09:55:05.677Z,101655.07
2023-12-31T09:57:36.304Z,101657.66
2023-12-31T10:00:06.929Z,101654.89
2023-12-31T10:02:41.987Z,101651.11
2023-12-31T10:05:11.071Z,101650.58
2023-12-31T10:07:39.246Z,101651.28
2023-12-31T10:10:07.159Z,101649.73
2023-12-31T10:12:34.745Z,101650.75
2023-12-31T10:15:02.213Z,101650.58
2023-12-31T10:17:31.008Z,101650.57
2023-12-31T10:19:59.355Z,101647.98
2023-12-31T10:22:27.018Z,101651.77
2023-12-31T10:24:54.747Z,101646.93
2023-12-31T10:27:22.359Z,101640.86
2023-12-31T10:29:49.931Z,101639.67
2023-12-31T10:32:21.707Z,101633.95
2023-12-31T10:35:03.578Z,101633.60
2023-12-31T10:37:31.309Z,101628.59
2023-12-31T10:39:58.852Z,101628.42
2023-12-31T10:42:26.560Z,101619.41
2023-12-31T10:44:59.351Z,101617.29
2023-12-31T10:47:26.952Z,101610.36
2023-12-31T10:49:58.055Z,101610.19
2023-12-31T10:52:26.430Z,101606.90
2023-12-31T10:54:54.142Z,101605.53
2023-12-31T10:57:24.670Z,101603.31
2023-12-31T10:59:52.292Z,101601.73
2023-12-31T11:02:22.058Z,101599.80
2023-12-31T11:04:50.188Z,101597.23
2023-12-31T11:07:21.610Z,101595.66
2023-12-31T11:09:52.275Z,101591.69
2023-12-31T11:12:19.931Z,101588.05
2023-12-31T11:15:06.054Z,101589.09
2023-12-31T11:17:52.448Z,101586.33
2023-12-31T11:20:54.408Z,101580.58
2023-12-31T11:24:05.766Z,101579.01
2023-12-31T11:26:33.326Z,101571.58
2023-12-31T11:29:02.178Z,101572.61
2023-12-31T11:31:29.705Z,101570.67
2023-12-31T11:33:57.332Z,101579.54
2023-12-31T11:36:24.943Z,101575.01
2023-12-31T11:39:02.626Z,101571.34
2023-12-31T11:41:34.905Z,101573.73
2023-12-31T11:44:02.983Z,101573.73
2023-12-31T11:46:35.210Z,101566.40
2023-12-31T11:49:02.963Z,101567.48
2023-12-31T11:51:53.830Z,101565.92
2023-12-31T11:54:23.134Z,101564.55
2023-12-31T11:56:54.280Z,101567.49
2023-12-31T11:59:22.062Z,101566.15
2023-12-31T12:01:53.560Z,101567.55
2023-12-31T12:04:23.371Z,101566.17
2023-12-31T12:06:51.683Z,101568.09
2023-12-31T12:09:26.395Z,101567.58
2023-12-31T12:12:01.797Z,101565.70
2023-12-31T12:14:29.729Z,101565.86
2023-12-31T12:16:57.605Z,101561.53
2023-12-31T12:19:25.458Z,101561.36
2023-12-31T12:21:53.199Z,101563.77
2023-12-31T12:24:20.912Z,101564.10
2023-12-31T12:26:51.961Z,101568.23
2023-12-31T12:29:19.606Z,101570.87
2023-12-31T12:31:49.037Z,101573.88
2023-12-31T12:34:16.991Z,101573.55
2023-12-31T12:36:44.683Z,101576.82
2023-12-31T12:39:19.811Z,101579.24
2023-12-31T12:41:51.856Z,101583.23
2023-12-31T12:44:23.791Z,101584.45
2023-12-31T12:46:52.844Z,101586.88
2023-12-31T12:49:22.140Z,101583.79
2023-12-31T12:51:50.461Z,101587.60
2023-12-31T12:54:18.560Z,101586.08
2023-12-31T12:56:46.574Z,101587.45
2023-12-31T12:59:14.542Z,101586.95
2023-12-31T13:01:42.496Z,101589.70
2023-12-31T13:04:14.076Z,101589.02
2023-12-31T13:06:42.102Z,101588.01
2023-12-31T13:09:09.799Z,101588.71
2023-12-31T13:11:37.457Z,101591.48
2023-12-31T13:14:05.122Z,101593.23
2023-12-31T13:16:43.402Z,101591.16
2023-12-31T13:19:23.252Z,101592.52
2023-12-31T13:21:53.802Z,101594.25
2023-12-31T13:24:21.814Z,101596.66
2023-12-31T13:26:49.629Z,101593.90
2023-12-31T13:29:17.490Z,101594.42
2023-12-31T13:31:45.416Z,101594.61
2023-12-31T13:34:13.041Z,101595.15
2023-12-31T13:36:40.733Z,101597.73
2023-12-31T13:39:08.964Z,101597.39
2023-12-31T13:41:36.537Z,101598.77
2023-12-31T13:44:04.432Z,101600.16
2023-12-31T13:46:32.071Z,101595.48
2023-12-31T13:48:59.640Z,101598.75
2023-12-31T13:51:27.175Z,101598.40
2023-12-31T13:53:54.794Z,101597.54
2023-12-31T13:56:22.306Z,101595.98
2023-12-31T13:58:49.838Z,101592.52
2023-12-31T14:01:17.439Z,101590.29
2023-12-31T14:03:45.296Z,101588.21
2023-12-31T14:06:17.845Z,101588.39
2023-12-31T14:08:45.952Z,101588.21
2023-12-31T14:11:13.652Z,101589.43
2023-12-31T14:13:41.308Z,101591.66
2023-12-31T14:16:09.018Z,101595.30
2023-12-31T14:18:36.537Z,101600.13
2023-12-31T14:21:04.212Z,101600.28
2023-12-31T14:23:36.072Z,101600.58
2023-12-31T14:26:04.028Z,101601.79
2023-12-31T14:28:31.647Z,101603.17
2023-12-31T14:30:59.224Z,101605.76
2023-12-31T14:33:27.409Z,101611.61
2023-12-31T14:35:55.694Z,101612.13
2023-12-31T14:38:23.465Z,101612.92
2023-12-31T14:40:51.210Z,101609.48
2023-12-31T14:43:18.798Z,101610.34
2023-12-31T14:45:46.405Z,101610.68
2023-12-31T14:48:14.083Z,101608.77
2023-12-31T14:50:41.904Z,101609.79
2023-12-31T14:53:09.924Z,101607.90
2023-12-31T14:55:37.914Z,101604.63
2023-12-31T14:58:06.529Z,101607.02
2023-12-31T15:00:34.221Z,101610.26
2023-12-31T15:03:02.455Z,101608.52
2023-12-31T15:05:31.892Z,101607.70
2023-12-31T15:08:00.710Z,101610.29
2023-12-31T15:10:28.381Z,101608.56
2023-12-31T15:12:59.330Z,101603.73
2023-12-31T15:15:26.830Z,101605.99
2023-12-31T15:17:54.501Z,101604.89
2023-12-31T15:20:22.484Z,101606.41
2023-12-31T15:22:51.178Z,101605.55
2023-12-31T15:25:18.842Z,101603.15
2023-12-31T15:27:46.685Z,101609.85
2023-12-31T15:30:14.543Z,101610.70
2023-12-31T15:32:42.236Z,101610.69
2023-12-31T15:35:15.542Z,101613.46
2023-12-31T15:37:54.654Z,101619.30
2023-12-31T15:40:29.785Z,101617.84
2023-12-31T15:42:57.435Z,101618.35
2023-12-31T15:45:25.011Z,101622.48
2023-12-31T15:47:52.524Z,101622.99
2023-12-31T15:50:20.255Z,101625.64
2023-12-31T15:52:48.070Z,101627.98
2023-12-31T15:55:15.796Z,101626.77
2023-12-31T15:57:43.435Z,101622.28
2023-12-31T16:00:15.309Z,101618.80
2023-12-31T16:02:43.276Z,101616.20
2023-12-31T16:05:30.614Z,101617.06
2023-12-31T16:08:15.642Z,101615.00
2023-12-31T16:10:43.403Z,101616.40
2023-12-31T16:13:11.699Z,101615.02
2023-12-31T16:15:39.240Z,101621.70
2023-12-31T16:18:07.337Z,101621.20
2023-12-31T16:20:35.129Z,101620.20
2023-12-31T16:23:03.124Z,101617.10
2023-12-31T16:25:30.791Z,101619.52
2023-12-31T16:27:58.620Z,101619.83
2023-12-31T16:30:26.192Z,101623.61
2023-12-31T16:32:53.829Z,101624.61
2023-12-31T16:35:21.369Z,101625.99
2023-12-31T16:37:48.926Z,101627.75
2023-12-31T16:40:16.750Z,101625.68
2023-12-31T16:42:44.405Z,101623.75
2023-12-31T16:45:12.243Z,101622.30
2023-12-31T16:47:40.882Z,101624.89
2023-12-31T16:50:13.853Z,101622.88
2023-12-31T16:52:42.090Z,101622.69
2023-12-31T16:55:11.796Z,101626.31
2023-12-31T16:57:39.714Z,101627.52
2023-12-31T17:00:09.227Z,101627.91
2023-12-31T17:02:36.900Z,101628.44
2023-12-31T17:05:04.860Z,101628.81
2023-12-31T17:07:32.823Z,101627.88
2023-12-31T17:10:02.735Z,101625.84
2023-12-31T17:12:30.277Z,101626.88
2023-12-31T17:14:57.914Z,101629.60
2023-12-31T17:17:25.583Z,101630.09
2023-12-31T17:19:53.340Z,101631.83
2023-12-31T17:22:20.843Z,101631.65
2023-12-31T17:24:49.819Z,101634.58
2023-12-31T17:27:27.651Z,101630.83
2023-12-31T17:29:55.270Z,101632.55
2023-12-31T17:32:22.904Z,101632.90
2023-12-31T17:34:50.887Z,101630.30
2023-12-31T17:37:18.444Z,101629.29
2023-12-31T17:39:46.144Z,101627.09
2023-12-31T17:42:14.123Z,101625.67
2023-12-31T17:44:52.648Z,101628.64
2023-12-31T17:47:23.131Z,101630.04
2023-12-31T17:49:50.859Z,101632.30
2023-12-31T17:52:18.432Z,101633.48
2023-12-31T17:54:48.001Z,101630.57
2023-12-31T17:57:15.619Z,101631.07
2023-12-31T17:59:43.427Z,101629.70
2023-12-31T18:02:11.160Z,101631.44
2023-12-31T18:04:40.807Z,101629.37
2023-12-31T18:07:09.287Z,101629.05
2023-12-31T18:09:37.000Z,101628.88
2023-12-31T18:12:04.856Z,101630.41
2023-12-31T18:14:32.416Z,101634.55
2023-12-31T18:17:00.212Z,101635.92
2023-12-31T18:19:27.895Z,101638.52
2023-12-31T18:21:55.702Z,101638.56
2023-12-31T18:24:23.424Z,101636.18
2023-12-31T18:26:50.926Z,101637.70
2023-12-31T18:29:18.733Z,101636.70
2023-12-31T18:31:47.007Z,101640.00
2023-12-31T18:34:14.939Z,101641.18
2023-12-31T18:36:44.217Z,101640.48
2023-12-31T18:39:11.827Z,101645.33
2023-12-31T18:41:39.363Z,101639.81
2023-12-31T18:44:06.881Z,101641.54
2023-12-31T18:46:40.929Z,101638.61
2023-12-31T18:49:08.817Z,101633.95
2023-12-31T18:51:42.668Z,101637.92
2023-12-31T18:54:12.175Z,101638.44
2023-12-31T18:56:39.840Z,101638.09
2023-12-31T18:59:08.772Z,101640.16
2023-12-31T19:01:37.420Z,101645.67
2023-12-31T19:04:05.425Z,101648.08
2023-12-31T19:06:33.130Z,101651.84
2023-12-31T19:09:00.911Z,101651.31
2023-12-31T19:11:29.510Z,101656.34
2023-12-31T19:13:57.087Z,101656.52
2023-12-31T19:16:24.819Z,101652.50
2023-12-31T19:18:57.933Z,101654.45
2023-12-31T19:21:25.860Z,101656.96
2023-12-31T19:23:53.701Z,101654.89
2023-12-31T19:26:21.246Z,101656.43
2023-12-31T19:28:48.894Z,101655.94
2023-12-31T19:31:17.593Z,101658.20
2023-12-31T19:33:45.346Z,101657.83
2023-12-31T19:36:13.320Z,101656.45
2023-12-31T19:38:40.823Z,101654.21
2023-12-31T19:41:08.834Z,101652.68
2023-12-31T19:43:56.100Z,101651.98
2023-12-31T19:46:25.567Z,101646.77
2023-12-31T19:48:53.444Z,101644.00
2023-12-31T19:51:21.150Z,101642.66
2023-12-31T19:53:48.738Z,101643.40
2023-12-31T19:56:16.436Z,101646.82
2023-12-31T19:58:44.173Z,101645.40
2023-12-31T20:01:11.741Z,101643.34
2023-12-31T20:03:46.225Z,101642.67
2023-12-31T20:06:13.855Z,101645.08
2023-12-31T20:08:41.416Z,101641.96
2023-12-31T20:11:09.688Z,101643.00
2023-12-31T20:13:38.925Z,101637.65
2023-12-31T20:16:06.781Z,101642.50
2023-12-31T20:18:34.569Z,101641.34
2023-12-31T20:21:05.227Z,101641.06
2023-12-31T20:23:32.780Z,101645.52
2023-12-31T20:26:00.369Z,101647.74
2023-12-31T20:28:28.000Z,101650.70
2023-12-31T20:30:55.731Z,101652.27
2023-12-31T20:33:23.501Z,101653.13
2023-12-31T20:35:51.309Z,101654.69
2023-12-31T20:38:18.977Z,101654.70
2023-12-31T20:40:46.802Z,101655.70
2023-12-31T20:43:14.295Z,101657.27
2023-12-31T20:45:43.256Z,101657.98
2023-12-31T20:48:10.851Z,101661.09
2023-12-31T20:50:40.207Z,101659.67
2023-12-31T20:53:08.034Z,101661.73
2023-12-31T20:55:35.834Z,101660.53
2023-12-31T20:58:03.542Z,101664.00
2023-12-31T21:00:31.183Z,101664.02
2023-12-31T21:02:58.630Z,101667.33
2023-12-31T21:05:26.323Z,101667.17
2023-12-31T21:07:53.965Z,101668.19
2023-12-31T21:10:21.558Z,101666.77
2023-12-31T21:12:49.047Z,101673.94
2023-12-31T21:15:16.694Z,101677.07
2023-12-31T21:17:44.223Z,101675.21
2023-12-31T21:20:11.997Z,101674.08
2023-12-31T21:22:39.679Z,101674.59
2023-12-31T21:25:07.377Z,101676.87
2023-12-31T21:27:34.901Z,101677.73
2023-12-31T21:30:02.628Z,101679.30
2023-12-31T21:32:30.251Z,101674.65
2023-12-31T21:34:57.979Z,101667.38
2023-12-31T21:37:25.567Z,101663.54
2023-12-31T21:39:56.159Z,101662.83
2023-12-31T21:42:23.708Z,101664.02
2023-12-31T21:44:51.258Z,101665.60
2023-12-31T21:47:18.798Z,101667.34
2023-12-31T21:49:46.448Z,101663.17
2023-12-31T21:52:14.004Z,101664.39
2023-12-31T21:54:41.738Z,101663.19
2023-12-31T21:57:09.300Z,101662.51
2023-12-31T21:59:36.888Z,101659.75
2023-12-31T22:02:04.575Z,101656.70
2023-12-31T22:04:32.353Z,101658.77
2023-12-31T22:06:59.981Z,101658.27
2023-12-31T22:09:27.611Z,101661.19
2023-12-31T22:11:55.170Z,101659.95
2023-12-31T22:14:22.770Z,101661.02
2023-12-31T22:16:50.514Z,101656.52
2023-12-31T22:19:18.214Z,101652.39
2023-12-31T22:21:46.947Z,101650.77
2023-12-31T22:24:14.680Z,101651.65
2023-12-31T22:26:42.277Z,101645.77
2023-12-31T22:29:09.818Z,101643.20
2023-12-31T22:31:37.386Z,101642.39
2023-12-31T22:34:04.997Z,101639.30
2023-12-31T22:36:32.547Z,101637.05
2023-12-31T22:39:00.019Z,101629.30
2023-12-31T22:41:27.605Z,101633.30
2023-12-31T22:43:55.211Z,101631.06
2023-12-31T22:46:28.687Z,101630.21
2023-12-31T22:48:56.430Z,101626.42
2023-12-31T22:51:23.990Z,101621.43
2023-12-31T22:53:53.203Z,101620.38
2023-12-31T22:56:20.825Z,101618.80
2023-12-31T22:58:48.331Z,101615.72
2023-12-31T23:01:15.908Z,101611.55
2023-12-31T23:03:43.939Z,101610.14
2023-12-31T23:06:11.520Z,101608.44
2023-12-31T23:08:39.081Z,101600.34
2023-12-31T23:11:06.842Z,101596.39
2023-12-31T23:13:38.104Z,101591.40
2023-12-31T23:16:06.013Z,101588.29
2023-12-31T23:18:34.777Z,101589.86
2023-12-31T23:21:02.430Z,101590.23
2023-12-31T23:23:29.964Z,101591.95
2023-12-31T23:26:09.442Z,101593.31
2023-12-31T23:28:37.325Z,101592.80
2023-12-31T23:31:05.145Z,101591.61
2023-12-31T23:33:33.801Z,101589.17
2023-12-31T23:36:01.501Z,101586.08
2023-12-31T23:38:29.144Z,101587.97
2023-12-31T23:40:56.768Z,101588.71
2023-12-31T23:43:24.299Z,101593.57
2023-12-31T23:45:52.038Z,101589.75
2023-12-31T23:48:20.259Z,101591.93
2023-12-31T23:50:47.909Z,101588.80
2023-12-31T23:53:16.174Z,101592.08
2023-12-31T23:55:44.316Z,101592.59
2023-12-31T23:58:17.354Z,101587.55
